createdAt,value
2019-02-15T00:02:38.986Z,4.13
2019-02-15T00:07:44.246Z,4.10
2019-02-15T00:12:49.729Z,4.37
2019-02-15T00:18:20.554Z,4.20
2019-02-15T00:23:26.065Z,4.43
2019-02-15T00:28:31.452Z,4.27
2019-02-15T00:33:36.627Z,4.23
2019-02-15T00:38:41.834Z,4.13
2019-02-15T00:43:47.273Z,4.10
2019-02-15T00:48:52.708Z,4.30
2019-02-15T00:54:23.390Z,4.70
2019-02-15T00:59:42.208Z,4.07
2019-02-15T01:05:09.771Z,4.53
2019-02-15T01:10:29.614Z,4.77
2019-02-15T01:15:35.150Z,4.37
2019-02-15T01:20:40.570Z,4.60
2019-02-15T01:25:52.934Z,4.30
2019-02-15T01:31:16.028Z,4.83
2019-02-15T01:36:27.161Z,4.67
2019-02-15T01:41:38.989Z,4.87
2019-02-15T01:47:03.664Z,4.60
2019-02-15T01:52:09.170Z,4.83
2019-02-15T01:57:14.333Z,4.40
2019-02-15T02:02:20.210Z,4.87
2019-02-15T02:07:25.749Z,4.60
2019-02-15T02:12:30.864Z,5.00
2019-02-15T02:17:36.206Z,4.73
2019-02-15T02:22:41.592Z,4.77
2019-02-15T02:27:46.783Z,4.90
2019-02-15T02:32:51.990Z,4.67
2019-02-15T02:37:57.224Z,5.50
2019-02-15T02:43:02.391Z,4.57
2019-02-15T02:48:08.554Z,4.93
2019-02-15T02:53:14.074Z,4.97
2019-02-15T02:58:19.259Z,4.60
2019-02-15T03:03:24.542Z,4.30
2019-02-15T03:08:31.187Z,4.33
2019-02-15T03:13:36.990Z,4.53
2019-02-15T03:18:42.486Z,5.07
2019-02-15T03:23:47.684Z,4.70
2019-02-15T03:28:52.839Z,4.70
2019-02-15T03:33:57.940Z,3.93
2019-02-15T03:39:13.231Z,4.70
2019-02-15T03:44:22.226Z,4.53
2019-02-15T03:49:25.946Z,4.53
2019-02-15T03:54:33.879Z,4.40
2019-02-15T03:59:39.600Z,4.87
2019-02-15T04:04:45.929Z,4.67
2019-02-15T04:09:51.409Z,4.73
2019-02-15T04:14:56.995Z,5.00
2019-02-15T04:20:02.182Z,4.70
2019-02-15T04:25:07.432Z,5.50
2019-02-15T04:30:12.610Z,4.70
2019-02-15T04:35:18.642Z,4.80
2019-02-15T04:40:24.875Z,4.97
2019-02-15T04:45:30.139Z,5.00
2019-02-15T04:50:35.327Z,4.90
2019-02-15T04:55:41.758Z,5.40
2019-02-15T05:00:47.031Z,4.70
2019-02-15T05:05:53.059Z,4.90
2019-02-15T05:10:58.557Z,4.90
2019-02-15T05:16:05.622Z,5.20
2019-02-15T05:21:12.786Z,4.73
2019-02-15T05:26:17.851Z,4.80
2019-02-15T05:31:23.326Z,5.07
2019-02-15T05:36:28.556Z,4.77
2019-02-15T05:41:34.205Z,4.37
2019-02-15T05:46:39.472Z,4.63
2019-02-15T05:51:44.672Z,4.63
2019-02-15T05:56:52.015Z,4.23
2019-02-15T06:01:58.533Z,4.50
2019-02-15T06:07:05.345Z,4.77
2019-02-15T06:12:10.544Z,4.50
2019-02-15T06:17:19.561Z,4.60
2019-02-15T06:22:26.158Z,4.53
2019-02-15T06:27:31.671Z,5.37
2019-02-15T06:32:37.232Z,5.17
2019-02-15T06:37:42.463Z,4.97
2019-02-15T06:42:47.687Z,5.13
2019-02-15T06:47:53.572Z,4.80
2019-02-15T06:52:59.060Z,5.03
2019-02-15T06:58:05.506Z,4.43
2019-02-15T07:03:19.209Z,4.07
2019-02-15T07:08:24.786Z,4.47
2019-02-15T07:13:31.143Z,4.30
2019-02-15T07:18:37.059Z,5.10
2019-02-15T07:23:43.220Z,4.77
2019-02-15T07:28:48.418Z,4.97
2019-02-15T07:33:54.593Z,4.43
2019-02-15T07:38:59.814Z,4.30
2019-02-15T07:44:06.095Z,4.40
2019-02-15T07:49:11.624Z,4.50
2019-02-15T07:54:16.816Z,4.53
2019-02-15T07:59:22.342Z,4.40
2019-02-15T08:04:27.827Z,4.10
2019-02-15T08:09:33.017Z,3.70
2019-02-15T08:14:38.277Z,3.83
2019-02-15T08:19:43.464Z,3.73
2019-02-15T08:24:49.729Z,3.80
2019-02-15T08:29:55.926Z,4.00
2019-02-15T08:35:01.942Z,3.90
2019-02-15T08:40:08.172Z,3.67
2019-02-15T08:45:13.489Z,3.40
2019-02-15T08:50:19.059Z,3.67
2019-02-15T08:55:24.562Z,3.63
2019-02-15T09:00:29.748Z,3.80
2019-02-15T09:05:35.255Z,3.47
2019-02-15T09:10:40.440Z,3.53
2019-02-15T09:15:46.269Z,3.97
2019-02-15T09:20:51.777Z,3.97
2019-02-15T09:25:56.963Z,3.53
2019-02-15T09:31:02.149Z,4.10
2019-02-15T09:36:07.369Z,3.67
2019-02-15T09:41:12.926Z,3.67
2019-02-15T09:46:20.253Z,3.37
2019-02-15T09:51:25.028Z,3.77
2019-02-15T09:56:30.371Z,3.40
2019-02-15T10:01:35.695Z,3.97
2019-02-15T10:06:41.242Z,3.60
2019-02-15T10:11:46.723Z,3.90
2019-02-15T10:16:51.998Z,3.03
2019-02-15T10:21:57.596Z,3.63
2019-02-15T10:27:02.789Z,3.17
2019-02-15T10:32:08.080Z,3.80
2019-02-15T10:37:13.316Z,3.20
2019-02-15T10:42:18.496Z,3.33
2019-02-15T10:47:25.286Z,3.30
2019-02-15T10:52:30.812Z,3.70
2019-02-15T10:57:36.059Z,2.90
2019-02-15T11:02:41.377Z,2.70
2019-02-15T11:07:47.525Z,2.80
2019-02-15T11:12:52.798Z,2.80
2019-02-15T11:17:58.051Z,2.60
2019-02-15T11:23:03.579Z,1.93
2019-02-15T11:28:08.777Z,1.90
2019-02-15T11:33:14.046Z,2.20
2019-02-15T11:38:19.339Z,1.70
2019-02-15T11:43:24.618Z,1.90
2019-02-15T11:48:29.886Z,1.52
2019-02-15T11:53:35.168Z,1.40
2019-02-15T11:58:40.766Z,1.32
2019-02-15T12:03:46.075Z,1.10
2019-02-15T12:08:51.840Z,1.17
2019-02-15T12:13:58.679Z,1.30
2019-02-15T12:19:04.016Z,1.20
2019-02-15T12:24:10.054Z,1.40
2019-02-15T12:29:15.300Z,1.20
2019-02-15T12:34:20.609Z,1.37
2019-02-15T12:39:25.918Z,1.20
2019-02-15T12:44:31.193Z,1.10
2019-02-15T12:49:36.481Z,1.20
2019-02-15T12:54:42.368Z,0.90
2019-02-15T12:59:48.943Z,1.22
2019-02-15T13:04:54.286Z,1.20
2019-02-15T13:10:00.261Z,0.90
2019-02-15T13:15:06.981Z,1.20
2019-02-15T13:20:12.552Z,1.10
2019-02-15T13:25:17.838Z,1.10
2019-02-15T13:30:23.102Z,1.22
2019-02-15T13:35:29.037Z,3.25
2019-02-15T13:40:34.342Z,2.20
2019-02-15T13:45:39.639Z,1.62
2019-02-15T13:50:46.205Z,1.20
2019-02-15T13:55:51.472Z,1.30
2019-02-15T14:00:57.529Z,1.25
2019-02-15T14:06:03.131Z,1.35
2019-02-15T14:11:08.443Z,1.40
2019-02-15T14:16:13.714Z,1.37
2019-02-15T14:21:19.414Z,1.60
2019-02-15T14:26:24.689Z,1.60
2019-02-15T14:31:29.973Z,1.50
2019-02-15T14:36:35.402Z,1.47
2019-02-15T14:41:41.017Z,1.60
2019-02-15T14:46:46.302Z,1.67
2019-02-15T14:51:51.866Z,1.47
2019-02-15T14:56:57.441Z,1.50
2019-02-15T15:02:03.064Z,1.62
2019-02-15T15:07:08.325Z,1.70
2019-02-15T15:12:13.615Z,1.80
2019-02-15T15:17:18.905Z,2.25
2019-02-15T15:22:24.207Z,1.80
2019-02-15T15:27:29.499Z,3.52
2019-02-15T15:32:34.778Z,1.40
2019-02-15T15:37:40.500Z,1.70
2019-02-15T15:42:45.829Z,1.62
2019-02-15T15:47:51.097Z,1.90
2019-02-15T15:52:56.410Z,1.80
2019-02-15T15:58:02.661Z,3.40
2019-02-15T16:03:08.020Z,3.52
2019-02-15T16:08:13.507Z,6.00
2019-02-15T16:13:18.905Z,4.20
2019-02-15T16:18:32.894Z,3.10
2019-02-15T16:23:31.678Z,3.12
2019-02-15T16:28:36.943Z,3.58
2019-02-15T16:33:42.579Z,2.72
2019-02-15T16:38:47.881Z,2.83
2019-02-15T16:43:53.196Z,3.98
2019-02-15T16:48:58.471Z,3.65
2019-02-15T16:54:04.108Z,3.45
2019-02-15T16:59:09.377Z,3.47
2019-02-15T17:04:14.887Z,3.65
2019-02-15T17:09:20.721Z,3.67
2019-02-15T17:14:26.077Z,3.52
2019-02-15T17:19:31.414Z,3.40
2019-02-15T17:24:36.757Z,3.30
2019-02-15T17:29:42.152Z,3.25
2019-02-15T17:34:48.848Z,3.00
2019-02-15T17:39:54.143Z,3.22
2019-02-15T17:45:00.441Z,3.62
2019-02-15T17:50:06.168Z,3.77
2019-02-15T17:55:11.780Z,3.83
2019-02-15T18:00:18.955Z,3.33
2019-02-15T18:05:24.221Z,3.70
2019-02-15T18:10:30.368Z,3.80
2019-02-15T18:15:35.971Z,3.42
2019-02-15T18:20:41.543Z,3.62
2019-02-15T18:25:46.810Z,3.62
2019-02-15T18:30:52.180Z,3.83
2019-02-15T18:35:58.281Z,3.73
2019-02-15T18:41:13.101Z,3.90
2019-02-15T18:46:10.990Z,3.62
2019-02-15T18:51:16.287Z,4.05
2019-02-15T18:56:21.566Z,4.22
2019-02-15T19:01:26.876Z,4.55
2019-02-15T19:06:32.655Z,4.20
2019-02-15T19:11:38.214Z,4.00
2019-02-15T19:16:43.936Z,4.67
2019-02-15T19:21:49.550Z,4.17
2019-02-15T19:26:55.580Z,3.77
2019-02-15T19:32:03.574Z,3.53
2019-02-15T19:37:10.037Z,3.80
2019-02-15T19:42:20.199Z,4.10
2019-02-15T19:47:25.537Z,4.50
2019-02-15T19:52:30.801Z,4.23
2019-02-15T19:57:37.114Z,4.27
2019-02-15T20:02:43.466Z,3.62
2019-02-15T20:07:48.781Z,3.43
2019-02-15T20:12:55.618Z,3.40
2019-02-15T20:18:02.069Z,3.70
2019-02-15T20:23:07.343Z,3.50
2019-02-15T20:28:14.340Z,3.27
2019-02-15T20:33:20.185Z,3.50
2019-02-15T20:38:25.626Z,3.40
2019-02-15T20:43:30.892Z,3.47
2019-02-15T20:48:36.213Z,3.97
2019-02-15T20:53:41.794Z,3.93
2019-02-15T20:58:47.329Z,4.27
2019-02-15T21:03:52.522Z,3.97
2019-02-15T21:08:59.618Z,3.80
2019-02-15T21:14:06.064Z,4.28
2019-02-15T21:19:11.332Z,3.90
2019-02-15T21:24:16.914Z,2.80
2019-02-15T21:29:22.107Z,2.80
2019-02-15T21:34:28.411Z,3.70
2019-02-15T21:39:34.695Z,3.87
2019-02-15T21:44:41.389Z,3.92
2019-02-15T21:49:46.574Z,5.60
2019-02-15T21:54:52.205Z,3.17
2019-02-15T21:59:57.681Z,3.13
2019-02-15T22:05:03.668Z,2.98
2019-02-15T22:10:09.468Z,2.70
2019-02-15T22:15:14.657Z,2.60
2019-02-15T22:20:26.820Z,2.93
2019-02-15T22:25:27.508Z,2.80
2019-02-15T22:30:32.798Z,2.90
2019-02-15T22:35:38.403Z,2.57
2019-02-15T22:40:44.863Z,2.70
2019-02-15T22:45:51.216Z,2.60
2019-02-15T22:50:56.822Z,2.93
2019-02-15T22:56:02.001Z,2.97
2019-02-15T23:01:18.472Z,3.03
2019-02-15T23:06:23.669Z,3.00
2019-02-15T23:11:28.974Z,2.93
2019-02-15T23:16:34.161Z,3.03
2019-02-15T23:21:39.635Z,2.97
2019-02-15T23:26:45.162Z,3.43
2019-02-15T23:31:50.371Z,3.23
2019-02-15T23:36:56.229Z,3.10
2019-02-15T23:42:01.566Z,3.40
2019-02-15T23:47:07.529Z,3.30
2019-02-15T23:52:13.123Z,3.10
2019-02-15T23:57:18.304Z,3.77
